Aérodrome :
LOGIN :

S'inscrire | Disclaimer

   EN    FR    IT 

 










Légende :    VFR   VFR Marginal   IFR   IFR Intensif   IFR Très Intensif
Visi : 
Plafond : 
>= 8 km
>= 3000ft
5 à 8 km
1000 à 3000 ft
1500m à 5 km
500 à 1000 ft
800 à 1500m
200 à 500 ft
< 800m
< 200 ft
Symboles :   Orages  Brouillard  Fortes neiges  Fortes précipitations  Vent > 20 kt
SIGMETs :   Divers  Orages  Givrage  Turbulence  Onde Orograph.  Cendres Volcan.







- Altitude de l'aérodrome : 616 ft
- Code IATA : PUF
- Voir les cartes d'approche


LFBP - Pau

DERNIER METAR :
  • 131930Z AUTO 27012KT 9999 -RA BKN011/// BKN023/// BKN047/// ///TCU 09/08 Q1009 TEMPO 4000 SHRA BKN008 BKN020TCU

METARs EXPIRÉS :
  • 131900Z AUTO 27015KT 9999 -RA BKN010/// OVC014/// ///TCU 09/08 Q1009 TEMPO 26015G25KT 4000 SHRA
  • 131830Z AUTO 25016KT 9999 -RA BKN009/// BKN017/// OVC024/// ///TCU 09/08 Q1008 TEMPO 26015G25KT 4000 SHRA
  • 131800Z AUTO 24011KT 9999 -RA BKN009 BKN014 OVC020 09/08 Q1008 TEMPO 26015G25KT 4000 SHRA BKN008 BKN020TCU
  • 131730Z AUTO 26011KT 7000 -RA BKN007 BKN012 BKN017 09/08 Q1008 TEMPO 26015G25KT 4000 SHRA BKN008 BKN020TCU
  • 131700Z AUTO 26013KT 9999 -RA BKN009/// OVC015/// ///TCU 09/08 Q1007 TEMPO 26015G25KT 4000 SHRA OVC006

TAF TAF LFBP
Valide du 13 à 18h jusqu'au 14 à 18h UTC


131700Z 1318/1418 26010KT 9999 BKN014 OVC040
TEMPO 1318/1409 4000 SHRA BKN008 BKN020TCU
PROB30
TEMPO 1318/1320 26015G25KT
PROB30
TEMPO 1409/1415 4000 -RA BKN008
PROB30
TEMPO 1412/1415 26015G25KT
Pas de NOTAMs connus pour ce terrain.
1 SIGMET publié pour la FIR Bordeaux (LFBB) :
 
Turbulence forte
LFBB SIGMET 6 VALID 132200/140200 LFPW
LFBB BORDEAUX FIR/UIR SEV TURB FCST WI N4245 W00045 - N4300 W00145 - N4430 W00145 - N4245 W00045 FL200/340 MOV E 15KT NC=



MET'MAP, la Météo Aéronautique d'un coup d'oeil ! - Copyright ORBIFLY Décembre 2007 - Disclaimer

ORBIFLY MET'MAP TEAM :

Programmation & Développement : Alexandra Zaïnal
Conception & Développement : Baudouin d'Aumeries
Co-Programmation & Développement : Marc-Olivier Méhu
Soutien technique & logistique : Manuel Goepfert

Contact : metmap@orbifly.com




SOURCES & CREDITS :

   NOAA